createdAt,value
2023-05-20T00:00:03.355Z,96410.78
2023-05-20T00:01:04.829Z,96419.06
2023-05-20T00:02:06.335Z,96421.72
2023-05-20T00:03:07.878Z,96420.13
2023-05-20T00:04:09.560Z,96423.09
2023-05-20T00:05:11.177Z,96416.44
2023-05-20T00:06:12.744Z,96423.38
2023-05-20T00:07:14.281Z,96425.25
2023-05-20T00:08:15.781Z,96416.75
2023-05-20T00:09:17.360Z,96415.94
2023-05-20T00:10:18.902Z,96430.34
2023-05-20T00:11:20.414Z,96414.66
2023-05-20T00:12:21.924Z,96414.94
2023-05-20T00:13:23.399Z,96414.16
2023-05-20T00:14:24.902Z,96414.94
2023-05-20T00:15:26.377Z,96411.78
2023-05-20T00:16:27.932Z,96407.56
2023-05-20T00:17:29.689Z,96417.09
2023-05-20T00:18:31.273Z,96410.50
2023-05-20T00:19:32.776Z,96408.13
2023-05-20T00:20:34.262Z,96409.22
2023-05-20T00:21:35.767Z,96412.16
2023-05-20T00:22:37.325Z,96405.25
2023-05-20T00:23:38.862Z,96409.78
2023-05-20T00:24:40.329Z,96409.28
2023-05-20T00:25:41.832Z,96411.44
2023-05-20T00:26:43.341Z,96398.41
2023-05-20T00:27:44.863Z,96402.69
2023-05-20T00:28:46.365Z,96396.84
2023-05-20T00:29:47.852Z,96395.56
2023-05-20T00:30:49.335Z,96391.59
2023-05-20T00:31:50.936Z,96383.63
2023-05-20T00:32:52.582Z,96384.72
2023-05-20T00:33:54.177Z,96387.16
2023-05-20T00:34:55.735Z,96381.84
2023-05-20T00:35:57.218Z,96385.56
2023-05-20T00:36:58.715Z,96388.22
2023-05-20T00:38:00.184Z,96384.28
2023-05-20T00:39:01.672Z,96384.28
2023-05-20T00:40:03.584Z,96386.41
2023-05-20T00:41:05.115Z,96384.84
2023-05-20T00:42:06.712Z,96378.22
2023-05-20T00:43:08.292Z,96384.34
2023-05-20T00:44:09.809Z,96381.16
2023-05-20T00:45:11.317Z,96380.38
2023-05-20T00:46:12.852Z,96378.31
2023-05-20T00:47:14.406Z,96373.28
2023-05-20T00:48:15.892Z,96378.06
2023-05-20T00:49:17.440Z,96371.97
2023-05-20T00:50:19.004Z,96374.91
2023-05-20T00:51:20.505Z,96374.38
2023-05-20T00:52:21.990Z,96382.38
2023-05-20T00:53:23.512Z,96379.97
2023-05-20T00:54:24.983Z,96384.78
2023-05-20T00:55:26.529Z,96380.53
2023-05-20T00:56:28.035Z,96388.00
2023-05-20T00:57:29.565Z,96391.75
2023-05-20T00:58:31.083Z,96386.44
2023-05-20T00:59:32.585Z,96386.22
2023-05-20T01:00:34.134Z,96385.16
2023-05-20T01:01:35.692Z,96387.28
2023-05-20T01:02:37.342Z,96381.47
2023-05-20T01:03:39.200Z,96381.47
2023-05-20T01:04:40.838Z,96387.84
2023-05-20T01:05:42.669Z,96380.16
2023-05-20T01:06:44.266Z,96393.44
2023-05-20T01:07:45.793Z,96400.63
2023-05-20T01:08:47.266Z,96384.97
2023-05-20T01:09:48.797Z,96383.41
2023-05-20T01:10:50.335Z,96383.69
2023-05-20T01:11:51.854Z,96395.34
2023-05-20T01:12:53.356Z,96373.34
2023-05-20T01:13:54.816Z,96377.06
2023-05-20T01:14:56.281Z,96378.13
2023-05-20T01:15:57.803Z,96382.66
2023-05-20T01:16:59.288Z,96382.16
2023-05-20T01:18:00.922Z,96386.69
2023-05-20T01:19:02.565Z,96368.38
2023-05-20T01:20:04.093Z,96373.97
2023-05-20T01:21:05.599Z,96381.94
2023-05-20T01:22:07.092Z,96378.75
2023-05-20T01:23:08.570Z,96368.94
2023-05-20T01:24:10.035Z,96379.03
2023-05-20T01:25:11.503Z,96379.34
2023-05-20T01:26:13.049Z,96372.44
2023-05-20T01:27:14.569Z,96373.22
2023-05-20T01:28:16.066Z,96362.88
2023-05-20T01:29:17.538Z,96371.16
2023-05-20T01:30:19.025Z,96378.31
2023-05-20T01:31:20.569Z,96370.66
2023-05-20T01:32:22.066Z,96372.50
2023-05-20T01:33:23.551Z,96377.28
2023-05-20T01:34:25.027Z,96370.91
2023-05-20T01:35:26.533Z,96369.63
2023-05-20T01:36:28.076Z,96365.38
2023-05-20T01:37:29.621Z,96366.47
2023-05-20T01:38:31.115Z,96368.31
2023-05-20T01:39:32.613Z,96365.66
2023-05-20T01:40:34.116Z,96359.84
2023-05-20T01:41:35.687Z,96361.72
2023-05-20T01:42:37.161Z,96362.81
2023-05-20T01:43:38.666Z,96365.72
2023-05-20T01:44:40.152Z,96366.50
2023-05-20T01:45:41.664Z,96362.25
2023-05-20T01:46:43.239Z,96363.34
2023-05-20T01:47:44.794Z,96361.75
2023-05-20T01:48:46.274Z,96358.31
2023-05-20T01:49:47.762Z,96362.06
2023-05-20T01:50:49.286Z,96363.91
2023-05-20T01:51:50.797Z,96360.47
2023-05-20T01:52:52.301Z,96361.25
2023-05-20T01:53:53.993Z,96361.56
2023-05-20T01:54:55.517Z,96359.69
2023-05-20T01:55:57.042Z,96361.56
2023-05-20T01:56:58.572Z,96359.16
2023-05-20T01:58:00.071Z,96357.56
2023-05-20T01:59:01.576Z,96356.00
2023-05-20T02:00:03.062Z,96355.22
2023-05-20T02:01:04.622Z,96359.72
2023-05-20T02:02:06.233Z,96359.22
2023-05-20T02:03:07.856Z,96349.41
2023-05-20T02:04:09.370Z,96363.72
2023-05-20T02:05:10.888Z,96352.34
2023-05-20T02:06:12.504Z,96350.75
2023-05-20T02:07:14.129Z,96350.75
2023-05-20T02:08:15.618Z,96357.91
2023-05-20T02:09:17.123Z,96348.66
2023-05-20T02:10:18.642Z,96358.97
2023-05-20T02:11:20.157Z,96355.03
2023-05-20T02:12:21.665Z,96348.94
2023-05-20T02:13:23.174Z,96354.25
2023-05-20T02:14:24.647Z,96358.78
2023-05-20T02:15:26.170Z,96353.47
2023-05-20T02:16:27.724Z,96355.59
2023-05-20T02:17:29.249Z,96348.72
2023-05-20T02:18:31.350Z,96348.72
2023-05-20T02:19:32.848Z,96345.28
2023-05-20T02:20:34.441Z,96345.50
2023-05-20T02:21:35.938Z,96346.59
2023-05-20T02:22:37.402Z,96341.28
2023-05-20T02:23:38.880Z,96347.66
2023-05-20T02:24:40.358Z,96347.66
2023-05-20T02:25:41.928Z,96346.88
2023-05-20T02:26:43.444Z,96348.75
2023-05-20T02:27:44.955Z,96342.63
2023-05-20T02:28:46.428Z,96349.03
2023-05-20T02:29:47.939Z,96349.81
2023-05-20T02:30:49.453Z,96343.19
2023-05-20T02:31:50.962Z,96342.38
2023-05-20T02:32:52.473Z,96349.56
2023-05-20T02:33:54.043Z,96350.66
2023-05-20T02:34:55.640Z,96353.31
2023-05-20T02:35:57.180Z,96346.41
2023-05-20T02:36:58.725Z,96344.84
2023-05-20T02:38:00.230Z,96356.22
2023-05-20T02:39:01.749Z,96350.13
2023-05-20T02:40:03.241Z,96351.19
2023-05-20T02:41:04.771Z,96354.94
2023-05-20T02:42:06.284Z,96346.16
2023-05-20T02:43:07.787Z,96344.59
2023-05-20T02:44:09.271Z,96353.34
2023-05-20T02:45:10.755Z,96358.13
2023-05-20T02:46:12.253Z,96353.63
2023-05-20T02:47:13.818Z,96352.84
2023-05-20T02:48:15.393Z,96353.91
2023-05-20T02:49:16.867Z,96357.34
2023-05-20T02:50:18.329Z,96353.91
2023-05-20T02:51:19.930Z,96354.97
2023-05-20T02:52:21.440Z,96357.91
2023-05-20T02:53:22.987Z,96348.09
2023-05-20T02:54:24.575Z,96349.16
2023-05-20T02:55:26.046Z,96356.59
2023-05-20T02:56:27.515Z,96350.25
2023-05-20T02:57:29.005Z,96349.72
2023-05-20T02:58:30.525Z,96348.66
2023-05-20T02:59:32.001Z,96352.38
2023-05-20T03:00:33.636Z,96356.88
2023-05-20T03:01:35.130Z,96347.63
2023-05-20T03:02:36.675Z,96349.50
2023-05-20T03:03:38.212Z,96343.38
2023-05-20T03:04:39.732Z,96346.84
2023-05-20T03:05:41.316Z,96349.75
2023-05-20T03:06:42.790Z,96348.16
2023-05-20T03:07:44.259Z,96343.94
2023-05-20T03:08:45.709Z,96344.22
2023-05-20T03:09:47.210Z,96346.88
2023-05-20T03:10:48.702Z,96343.44
2023-05-20T03:11:50.184Z,96347.16
2023-05-20T03:12:51.648Z,96351.66
2023-05-20T03:13:53.146Z,96351.94
2023-05-20T03:14:54.611Z,96351.16
2023-05-20T03:15:56.154Z,96356.44
2023-05-20T03:16:57.666Z,96354.88
2023-05-20T03:17:59.280Z,96351.41
2023-05-20T03:19:00.872Z,96354.38
2023-05-20T03:20:02.392Z,96353.56
2023-05-20T03:21:03.929Z,96350.91
2023-05-20T03:22:05.428Z,96352.00
2023-05-20T03:23:06.931Z,96353.84
2023-05-20T03:24:08.394Z,96355.69
2023-05-20T03:25:09.899Z,96349.63
2023-05-20T03:26:11.435Z,96356.78
2023-05-20T03:27:12.939Z,96354.41
2023-05-20T03:28:14.415Z,96356.28
2023-05-20T03:29:15.925Z,96356.28
2023-05-20T03:30:17.400Z,96359.97
2023-05-20T03:31:18.933Z,96355.75
2023-05-20T03:32:20.482Z,96354.16
2023-05-20T03:33:21.989Z,96357.59
2023-05-20T03:34:23.481Z,96358.69
2023-05-20T03:35:25.047Z,96357.09
2023-05-20T03:36:26.550Z,96350.22
2023-05-20T03:37:28.062Z,96344.91
2023-05-20T03:38:29.580Z,96345.97
2023-05-20T03:39:31.066Z,96350.22
2023-05-20T03:40:32.607Z,96347.06
2023-05-20T03:41:34.115Z,96350.50
2023-05-20T03:42:35.590Z,96342.81
2023-05-20T03:43:37.108Z,96341.25
2023-05-20T03:44:38.603Z,96352.63
2023-05-20T03:45:40.092Z,96347.59
2023-05-20T03:46:41.608Z,96348.41
2023-05-20T03:47:43.192Z,96349.47
2023-05-20T03:48:44.729Z,96350.50
2023-05-20T03:49:46.228Z,96349.72
2023-05-20T03:50:47.739Z,96352.38
2023-05-20T03:51:49.280Z,96353.16
2023-05-20T03:52:50.799Z,96352.38
2023-05-20T03:53:52.281Z,96351.59
2023-05-20T03:54:53.734Z,96357.94
2023-05-20T03:55:55.197Z,96351.88
2023-05-20T03:56:56.759Z,96348.44
2023-05-20T03:57:58.248Z,96352.94
2023-05-20T03:58:59.748Z,96350.28
2023-05-20T04:00:01.232Z,96340.75
2023-05-20T04:01:02.726Z,96355.59
2023-05-20T04:02:04.774Z,96347.66
2023-05-20T04:03:06.326Z,96343.41
2023-05-20T04:04:08.064Z,96350.28
2023-05-20T04:05:09.559Z,96351.09
2023-05-20T04:06:11.037Z,96352.13
2023-05-20T04:07:12.546Z,96349.47
2023-05-20T04:08:14.042Z,96341.53
2023-05-20T04:09:15.548Z,96350.28
2023-05-20T04:10:17.034Z,96344.47
2023-05-20T04:11:18.492Z,96343.41
2023-05-20T04:12:19.982Z,96343.41
2023-05-20T04:13:21.452Z,96347.66
2023-05-20T04:14:22.933Z,96345.25
2023-05-20T04:15:24.452Z,96346.06
2023-05-20T04:16:25.987Z,96347.66
2023-05-20T04:17:27.622Z,96347.66
2023-05-20T04:18:29.122Z,96340.75
2023-05-20T04:19:30.647Z,96344.19
2023-05-20T04:20:32.171Z,96347.66
2023-05-20T04:21:33.657Z,96347.66
2023-05-20T04:22:35.177Z,96346.56
2023-05-20T04:23:36.700Z,96348.94
2023-05-20T04:24:38.194Z,96347.88
2023-05-20T04:25:39.882Z,96350.25
2023-05-20T04:26:41.632Z,96345.75
2023-05-20T04:27:43.134Z,96350.75
2023-05-20T04:28:44.649Z,96349.69
2023-05-20T04:29:46.176Z,96351.28
2023-05-20T04:30:47.651Z,96357.91
2023-05-20T04:31:49.210Z,96342.78
2023-05-20T04:32:50.832Z,96353.88
2023-05-20T04:33:52.380Z,96345.66
2023-05-20T04:34:53.895Z,96343.53
2023-05-20T04:35:55.386Z,96342.97
2023-05-20T04:36:56.865Z,96338.16
2023-05-20T04:37:58.472Z,96337.09
2023-05-20T04:38:59.986Z,96341.84
2023-05-20T04:40:01.492Z,96343.16
2023-05-20T04:41:02.992Z,96347.13
2023-05-20T04:42:04.501Z,96338.59
2023-05-20T04:43:06.029Z,96349.44
2023-05-20T04:44:07.500Z,96347.81
2023-05-20T04:45:08.987Z,96343.50
2023-05-20T04:46:10.511Z,96344.03
2023-05-20T04:47:12.017Z,96343.47
2023-05-20T04:48:13.545Z,96350.59
2023-05-20T04:49:15.017Z,96348.16
2023-05-20T04:50:16.490Z,96348.44
2023-05-20T04:51:17.957Z,96346.78
2023-05-20T04:52:19.478Z,96352.84
2023-05-20T04:53:20.978Z,96347.25
2023-05-20T04:54:22.479Z,96357.03
2023-05-20T04:55:24.034Z,96351.94
2023-05-20T04:56:25.538Z,96356.13
2023-05-20T04:57:27.024Z,96353.97
2023-05-20T04:58:28.566Z,96347.53
2023-05-20T04:59:30.041Z,96351.22
2023-05-20T05:00:31.522Z,96349.28
2023-05-20T05:01:33.028Z,96353.72
2023-05-20T05:02:34.563Z,96349.44
2023-05-20T05:03:36.840Z,96338.25
2023-05-20T05:04:38.539Z,96342.44
2023-05-20T05:05:40.170Z,96340.00
2023-05-20T05:06:42.063Z,96343.34
2023-05-20T05:07:43.563Z,96337.72
2023-05-20T05:08:45.062Z,96349.38
2023-05-20T05:09:46.554Z,96343.19
2023-05-20T05:10:48.039Z,96347.66
2023-05-20T05:11:49.560Z,96344.41
2023-05-20T05:12:51.041Z,96347.78
2023-05-20T05:13:52.550Z,96345.06
2023-05-20T05:14:54.046Z,96346.56
2023-05-20T05:15:55.584Z,96348.38
2023-05-20T05:16:57.126Z,96350.66
2023-05-20T05:17:58.692Z,96337.28
2023-05-20T05:19:00.262Z,96343.31
2023-05-20T05:20:01.806Z,96335.25
2023-05-20T05:21:03.464Z,96342.06
2023-05-20T05:22:05.012Z,96340.13
2023-05-20T05:23:06.500Z,96341.59
2023-05-20T05:24:07.960Z,96342.06
2023-05-20T05:25:09.487Z,96338.53
2023-05-20T05:26:10.977Z,96336.56
2023-05-20T05:27:12.878Z,96347.63
2023-05-20T05:28:14.364Z,96341.63
2023-05-20T05:29:15.954Z,96347.66
2023-05-20T05:30:17.446Z,96340.06
2023-05-20T05:31:18.929Z,96336.22
2023-05-20T05:32:20.473Z,96335.84
2023-05-20T05:33:22.065Z,96345.00
2023-05-20T05:34:23.772Z,96338.50
2023-05-20T05:35:25.263Z,96343.41
2023-05-20T05:36:26.786Z,96334.75
2023-05-20T05:37:28.314Z,96332.50
2023-05-20T05:38:29.825Z,96336.63
2023-05-20T05:39:31.320Z,96338.09
2023-05-20T05:40:32.830Z,96334.72
2023-05-20T05:41:34.326Z,96335.13
2023-05-20T05:42:35.863Z,96337.38
2023-05-20T05:43:37.421Z,96332.44
2023-05-20T05:44:38.941Z,96340.47
2023-05-20T05:45:40.461Z,96323.28
2023-05-20T05:46:42.001Z,96334.31
2023-05-20T05:47:43.554Z,96334.72
2023-05-20T05:48:45.100Z,96327.38
2023-05-20T05:49:46.582Z,96336.53
2023-05-20T05:50:48.106Z,96333.44
2023-05-20T05:51:49.624Z,96337.25
2023-05-20T05:52:51.148Z,96340.28
2023-05-20T05:53:52.653Z,96333.75
2023-05-20T05:54:54.140Z,96337.56
2023-05-20T05:55:55.625Z,96334.44
2023-05-20T05:56:57.115Z,96334.81
2023-05-20T05:57:58.638Z,96332.50
2023-05-20T05:59:00.166Z,96333.94
2023-05-20T06:00:01.696Z,96331.63
2023-05-20T06:01:03.247Z,96332.75
2023-05-20T06:02:04.828Z,96326.94
2023-05-20T06:03:06.429Z,96330.75
2023-05-20T06:04:08.085Z,96335.34
2023-05-20T06:05:09.717Z,96331.13
2023-05-20T06:06:11.237Z,96326.13
2023-05-20T06:07:12.853Z,96324.56
2023-05-20T06:08:14.395Z,96327.56
2023-05-20T06:09:15.871Z,96328.69
2023-05-20T06:10:17.388Z,96325.25
2023-05-20T06:11:18.918Z,96318.31
2023-05-20T06:12:20.455Z,96322.09
2023-05-20T06:13:21.992Z,96318.97
2023-05-20T06:14:23.526Z,96326.19
2023-05-20T06:15:25.008Z,96321.16
2023-05-20T06:16:26.555Z,96319.59
2023-05-20T06:17:28.111Z,96318.34
2023-05-20T06:18:29.804Z,96319.91
2023-05-20T06:19:31.332Z,96324.78
2023-05-20T06:20:32.870Z,96321.28
2023-05-20T06:21:35.314Z,96320.50
2023-05-20T06:22:36.875Z,96320.78
2023-05-20T06:23:38.416Z,96329.13
2023-05-20T06:24:39.891Z,96327.53
2023-05-20T06:25:41.409Z,96318.22
2023-05-20T06:26:42.910Z,96320.09
2023-05-20T06:27:44.434Z,96317.69
2023-05-20T06:28:46.359Z,96320.66
2023-05-20T06:29:47.845Z,96315.91
2023-05-20T06:30:49.378Z,96327.72
2023-05-20T06:31:50.888Z,96322.59
2023-05-20T06:32:52.515Z,96316.75
2023-05-20T06:33:54.125Z,96313.22
2023-05-20T06:34:55.626Z,96316.53
2023-05-20T06:35:57.158Z,96311.44
2023-05-20T06:36:58.672Z,96319.75
2023-05-20T06:38:00.326Z,96306.94
2023-05-20T06:39:01.888Z,96313.38
2023-05-20T06:40:03.431Z,96309.38
2023-05-20T06:41:04.903Z,96325.72
2023-05-20T06:42:06.453Z,96317.16
2023-05-20T06:43:07.926Z,96328.13
2023-05-20T06:44:09.437Z,96319.13
2023-05-20T06:45:10.924Z,96319.34
2023-05-20T06:46:12.506Z,96317.75
2023-05-20T06:47:14.036Z,96316.75
2023-05-20T06:48:15.514Z,96324.72
2023-05-20T06:49:17.008Z,96321.03
2023-05-20T06:50:18.483Z,96323.97
2023-05-20T06:51:19.975Z,96326.13
2023-05-20T06:52:21.449Z,96318.63
2023-05-20T06:53:23.013Z,96322.34
2023-05-20T06:54:24.535Z,96317.88
2023-05-20T06:55:26.086Z,96313.84
2023-05-20T06:56:27.594Z,96317.16
2023-05-20T06:57:29.055Z,96310.44
2023-05-20T06:58:30.538Z,96311.00
2023-05-20T06:59:32.062Z,96310.75
2023-05-20T07:00:33.561Z,96313.69
2023-05-20T07:01:35.088Z,96315.34
2023-05-20T07:02:36.694Z,96309.44
2023-05-20T07:03:38.217Z,96299.22
2023-05-20T07:04:39.770Z,96311.31
2023-05-20T07:05:41.280Z,96305.72
2023-05-20T07:06:42.737Z,96313.56
2023-05-20T07:07:44.225Z,96319.19
2023-05-20T07:08:45.738Z,96315.50
2023-05-20T07:09:47.286Z,96316.81
2023-05-20T07:10:48.833Z,96309.28
2023-05-20T07:11:50.364Z,96308.72
2023-05-20T07:12:51.885Z,96316.53
2023-05-20T07:13:53.507Z,96306.00
2023-05-20T07:14:55.041Z,96311.16
2023-05-20T07:15:56.528Z,96313.25
2023-05-20T07:16:58.027Z,96300.66
2023-05-20T07:17:59.597Z,96301.25
2023-05-20T07:19:01.254Z,96305.25
2023-05-20T07:20:02.778Z,96300.41
2023-05-20T07:21:04.270Z,96300.59
2023-05-20T07:22:05.776Z,96308.09
2023-05-20T07:23:07.265Z,96307.06
2023-05-20T07:24:08.765Z,96299.16
2023-05-20T07:25:10.289Z,96296.22
2023-05-20T07:26:11.787Z,96300.59
2023-05-20T07:27:13.260Z,96293.00
2023-05-20T07:28:14.750Z,96289.75
2023-05-20T07:29:16.266Z,96287.94
2023-05-20T07:30:18.421Z,96290.00
2023-05-20T07:31:19.969Z,96290.53
2023-05-20T07:32:21.518Z,96295.31
2023-05-20T07:33:23.012Z,96292.34
2023-05-20T07:34:24.504Z,96286.69
2023-05-20T07:35:26.032Z,96285.31
2023-05-20T07:36:27.549Z,96289.66
2023-05-20T07:37:29.032Z,96283.19
2023-05-20T07:38:30.540Z,96291.84
2023-05-20T07:39:32.016Z,96279.22
2023-05-20T07:40:33.851Z,96283.19
2023-05-20T07:41:35.536Z,96287.56
2023-05-20T07:42:37.077Z,96284.16
2023-05-20T07:43:38.590Z,96283.88
2023-05-20T07:44:40.069Z,96287.44
2023-05-20T07:45:41.667Z,96289.84
2023-05-20T07:46:43.281Z,96290.72
2023-05-20T07:47:44.879Z,96286.59
2023-05-20T07:48:46.389Z,96280.50
2023-05-20T07:49:47.865Z,96278.66
2023-05-20T07:50:49.342Z,96269.50
2023-05-20T07:51:50.820Z,96271.16
2023-05-20T07:52:56.546Z,96279.34
2023-05-20T07:53:58.379Z,96279.03
2023-05-20T07:54:59.882Z,96280.66
2023-05-20T07:56:01.404Z,96272.66
2023-05-20T07:57:02.921Z,96279.69
2023-05-20T07:58:04.454Z,96278.28
2023-05-20T07:59:06.068Z,96277.53
2023-05-20T08:00:07.564Z,96273.34
2023-05-20T08:01:09.084Z,96275.75
2023-05-20T08:02:10.601Z,96277.38
2023-05-20T08:03:12.381Z,96275.53
2023-05-20T08:04:14.085Z,96277.19
2023-05-20T08:05:15.696Z,96272.66
2023-05-20T08:06:17.189Z,96271.56
2023-05-20T08:07:18.691Z,96266.22
2023-05-20T08:08:20.180Z,96272.47
2023-05-20T08:09:21.759Z,96271.75
2023-05-20T08:10:23.331Z,96274.16
2023-05-20T08:11:24.835Z,96274.22
2023-05-20T08:12:26.329Z,96268.88
2023-05-20T08:13:27.828Z,96275.47
2023-05-20T08:14:29.581Z,96274.78
2023-05-20T08:15:31.113Z,96276.38
2023-05-20T08:16:32.655Z,96272.94
2023-05-20T08:17:34.238Z,96271.53
2023-05-20T08:18:35.782Z,96263.53
2023-05-20T08:19:37.344Z,96270.19
2023-05-20T08:20:38.922Z,96274.56
2023-05-20T08:21:40.379Z,96268.50
2023-05-20T08:22:41.838Z,96270.16
2023-05-20T08:23:43.330Z,96268.34
2023-05-20T08:24:44.825Z,96267.66
2023-05-20T08:25:46.306Z,96260.09
2023-05-20T08:26:47.772Z,96260.97
2023-05-20T08:27:49.258Z,96270.75
2023-05-20T08:28:50.745Z,96267.34
2023-05-20T08:29:52.277Z,96268.97
2023-05-20T08:30:53.789Z,96269.84
2023-05-20T08:31:55.317Z,96274.56
2023-05-20T08:32:56.891Z,96272.34
2023-05-20T08:33:58.411Z,96264.31
2023-05-20T08:35:00.361Z,96265.53
2023-05-20T08:36:01.878Z,96263.28
2023-05-20T08:37:03.384Z,96259.09
2023-05-20T08:38:11.866Z,96252.94
2023-05-20T08:39:13.561Z,96251.44
2023-05-20T08:40:15.066Z,96260.03
2023-05-20T08:41:16.535Z,96257.75
2023-05-20T08:42:18.040Z,96259.00
2023-05-20T08:43:19.544Z,96255.97
2023-05-20T08:44:21.037Z,96253.66
2023-05-20T08:45:22.546Z,96262.63
2023-05-20T08:46:24.096Z,96258.81
2023-05-20T08:47:25.690Z,96261.94
2023-05-20T08:48:27.211Z,96268.59
2023-05-20T08:49:28.680Z,96258.94
2023-05-20T08:50:30.152Z,96253.16
2023-05-20T08:51:31.621Z,96267.19
2023-05-20T08:52:33.117Z,96263.34
2023-05-20T08:53:34.594Z,96257.97
2023-05-20T08:54:36.116Z,96261.09
2023-05-20T08:55:37.606Z,96263.47
2023-05-20T08:56:39.095Z,96257.66
2023-05-20T08:57:40.616Z,96260.81
2023-05-20T08:58:42.089Z,96252.31
2023-05-20T08:59:43.587Z,96263.97
2023-05-20T09:00:45.078Z,96269.03
2023-05-20T09:01:47.833Z,96259.41
2023-05-20T09:02:49.595Z,96253.59
2023-05-20T09:03:51.095Z,96260.59
2023-05-20T09:04:52.667Z,96252.47
2023-05-20T09:05:54.236Z,96258.31
2023-05-20T09:06:55.764Z,96258.34
2023-05-20T09:07:57.281Z,96261.09
2023-05-20T09:08:58.932Z,96262.63
2023-05-20T09:10:00.515Z,96261.09
2023-05-20T09:11:02.104Z,96252.94
2023-05-20T09:12:03.660Z,96264.19
2023-05-20T09:13:05.242Z,96253.28
2023-05-20T09:14:06.788Z,96257.16
2023-05-20T09:15:08.299Z,96255.19
2023-05-20T09:16:09.817Z,96266.03
2023-05-20T09:17:11.332Z,96260.59
2023-05-20T09:18:13.007Z,96265.63
2023-05-20T09:19:14.530Z,96263.31
2023-05-20T09:20:16.108Z,96257.84
2023-05-20T09:21:17.671Z,96256.69
2023-05-20T09:22:19.222Z,96252.38
2023-05-20T09:23:20.774Z,96253.91
2023-05-20T09:24:22.270Z,96250.00
2023-05-20T09:25:24.254Z,96258.53
2023-05-20T09:26:26.083Z,96254.25
2023-05-20T09:27:27.585Z,96248.44
2023-05-20T09:28:29.102Z,96251.53
2023-05-20T09:29:30.606Z,96249.59
2023-05-20T09:30:32.137Z,96248.41
2023-05-20T09:31:33.708Z,96255.34
2023-05-20T09:32:35.279Z,96246.03
2023-05-20T09:33:36.776Z,96242.16
2023-05-20T09:34:38.302Z,96249.09
2023-05-20T09:35:39.825Z,96244.06
2023-05-20T09:36:44.541Z,96251.03
2023-05-20T09:37:46.038Z,96255.69
2023-05-20T09:38:47.634Z,96243.28
2023-05-20T09:39:49.165Z,96248.31
2023-05-20T09:40:50.659Z,96245.16
2023-05-20T09:41:52.197Z,96244.03
2023-05-20T09:42:53.750Z,96247.88
2023-05-20T09:43:55.253Z,96240.91
2023-05-20T09:44:56.748Z,96242.84
2023-05-20T09:45:58.275Z,96252.91
2023-05-20T09:46:59.880Z,96249.41
2023-05-20T09:48:01.379Z,96252.13
2023-05-20T09:49:02.922Z,96252.91
2023-05-20T09:50:04.424Z,96252.91
2023-05-20T09:51:05.936Z,96244.75
2023-05-20T09:52:07.585Z,96242.84
2023-05-20T09:53:09.107Z,96243.63
2023-05-20T09:54:10.612Z,96242.84
2023-05-20T09:55:12.134Z,96244.03
2023-05-20T09:56:13.647Z,96242.44
2023-05-20T09:57:15.240Z,96239.75
2023-05-20T09:58:16.921Z,96236.66
2023-05-20T09:59:18.422Z,96237.06
2023-05-20T10:00:20.066Z,96230.09
2023-05-20T10:01:21.632Z,96234.34
2023-05-20T10:02:23.347Z,96227.78
2023-05-20T10:03:25.112Z,96222.75
2023-05-20T10:04:26.763Z,96221.97
2023-05-20T10:05:28.356Z,96221.97
2023-05-20T10:06:29.878Z,96223.50
2023-05-20T10:07:41.782Z,96220.44
2023-05-20T10:08:43.962Z,96218.88
2023-05-20T10:09:45.452Z,96220.44
2023-05-20T10:10:46.977Z,96229.38
2023-05-20T10:11:48.461Z,96224.72
2023-05-20T10:12:49.972Z,96227.06
2023-05-20T10:13:51.479Z,96225.09
2023-05-20T10:14:53.009Z,96227.81
2023-05-20T10:15:54.565Z,96219.31
2023-05-20T10:16:56.085Z,96224.72
2023-05-20T10:17:57.672Z,96229.78
2023-05-20T10:18:59.289Z,96232.13
2023-05-20T10:20:00.833Z,96226.31
2023-05-20T10:21:02.329Z,96227.88
2023-05-20T10:22:03.833Z,96218.56
2023-05-20T10:23:06.351Z,96223.59
2023-05-20T10:24:07.885Z,96220.53
2023-05-20T10:25:09.384Z,96226.72
2023-05-20T10:26:10.909Z,96217.03
2023-05-20T10:27:12.370Z,96226.75
2023-05-20T10:28:13.877Z,96222.84
2023-05-20T10:29:15.345Z,96219.00
2023-05-20T10:30:16.979Z,96213.19
2023-05-20T10:31:18.522Z,96213.97
2023-05-20T10:32:20.037Z,96210.88
2023-05-20T10:33:21.568Z,96207.00
2023-05-20T10:34:23.110Z,96205.09
2023-05-20T10:35:24.640Z,96203.16
2023-05-20T10:36:26.251Z,96210.13
2023-05-20T10:37:27.777Z,96209.75
2023-05-20T10:38:29.300Z,96206.66
2023-05-20T10:39:30.780Z,96206.28
2023-05-20T10:40:32.459Z,96210.53
2023-05-20T10:41:34.091Z,96208.22
2023-05-20T10:42:35.574Z,96209.38
2023-05-20T10:43:37.104Z,96208.25
2023-05-20T10:44:38.609Z,96204.38
2023-05-20T10:45:40.088Z,96205.53
2023-05-20T10:46:54.334Z,96205.56
2023-05-20T10:48:01.734Z,96200.91
2023-05-20T10:49:03.578Z,96196.66
2023-05-20T10:50:05.201Z,96187.75
2023-05-20T10:51:06.740Z,96186.94
2023-05-20T10:52:08.234Z,96177.63
2023-05-20T10:53:15.617Z,96192.00
2023-05-20T10:54:23.429Z,96198.63
2023-05-20T10:55:24.916Z,96192.38
2023-05-20T10:56:26.431Z,96192.75
2023-05-20T10:57:27.930Z,96192.38
2023-05-20T10:58:29.424Z,96183.47
2023-05-20T10:59:30.905Z,96191.63
2023-05-20T11:00:32.436Z,96188.50
2023-05-20T11:01:34.081Z,96190.44
2023-05-20T11:02:35.703Z,96188.13
2023-05-20T11:03:37.669Z,96186.53
2023-05-20T11:04:39.313Z,96185.00
2023-05-20T11:05:40.791Z,96171.03
2023-05-20T11:06:42.303Z,96179.94
2023-05-20T11:07:43.767Z,96173.72
2023-05-20T11:08:45.245Z,96180.72
2023-05-20T11:09:46.722Z,96178.38
2023-05-20T11:10:48.219Z,96182.22
2023-05-20T11:11:49.728Z,96174.88
2023-05-20T11:12:51.272Z,96176.41
2023-05-20T11:13:52.796Z,96171.78
2023-05-20T11:14:54.302Z,96173.69
2023-05-20T11:15:55.880Z,96173.69
2023-05-20T11:16:57.393Z,96171.38
2023-05-20T11:17:58.994Z,96169.81
2023-05-20T11:19:00.598Z,96171.00
2023-05-20T11:20:02.144Z,96167.47
2023-05-20T11:21:03.631Z,96163.22
2023-05-20T11:22:05.190Z,96163.59
2023-05-20T11:23:06.676Z,96162.06
2023-05-20T11:24:08.192Z,96170.56
2023-05-20T11:25:09.717Z,96168.97
2023-05-20T11:26:11.257Z,96167.81
2023-05-20T11:27:12.783Z,96162.00
2023-05-20T11:28:14.567Z,96168.56
2023-05-20T11:29:16.218Z,96165.47
2023-05-20T11:30:17.694Z,96170.50
2023-05-20T11:31:19.185Z,96159.25
2023-05-20T11:32:20.775Z,96162.34
2023-05-20T11:33:22.425Z,96172.03
2023-05-20T11:34:26.418Z,96168.53
2023-05-20T11:35:28.818Z,96167.00
2023-05-20T11:36:30.375Z,96168.13
2023-05-20T11:37:31.894Z,96155.72
2023-05-20T11:38:33.376Z,96160.75
2023-05-20T11:39:34.882Z,96166.59
2023-05-20T11:40:49.810Z,96166.22
2023-05-20T11:41:52.279Z,96169.72
2023-05-20T11:42:53.988Z,96168.97
2023-05-20T11:43:55.498Z,96166.66
2023-05-20T11:44:57.382Z,96166.66
2023-05-20T11:45:59.737Z,96159.34
2023-05-20T11:47:01.564Z,96160.50
2023-05-20T11:48:03.356Z,96165.16
2023-05-20T11:49:04.903Z,96145.41
2023-05-20T11:50:06.417Z,96168.25
2023-05-20T11:51:07.945Z,96159.75
2023-05-20T11:52:09.455Z,96165.19
2023-05-20T11:53:10.993Z,96165.94
2023-05-20T11:54:12.624Z,96162.09
2023-05-20T11:55:14.133Z,96168.28
2023-05-20T11:56:15.608Z,96168.28
2023-05-20T11:57:17.097Z,96174.88
2023-05-20T11:58:18.621Z,96172.19
2023-05-20T11:59:20.118Z,96170.59
2023-05-20T12:00:21.590Z,96167.88
2023-05-20T12:01:23.480Z,96174.09
2023-05-20T12:02:25.229Z,96168.28
2023-05-20T12:03:27.012Z,96165.56